createdAt,value
2022-08-08T00:00:59.676Z,15.15
2022-08-08T00:03:31.772Z,15.12
2022-08-08T00:06:08.106Z,15.07
2022-08-08T00:09:01.793Z,14.99
2022-08-08T00:12:02.947Z,14.88
2022-08-08T00:14:59.017Z,14.81
2022-08-08T00:17:58.680Z,14.81
2022-08-08T00:20:19.999Z,14.69
2022-08-08T00:22:47.407Z,14.86
2022-08-08T00:25:17.279Z,14.98
2022-08-08T00:27:44.011Z,14.90
2022-08-08T00:30:11.318Z,14.72
2022-08-08T00:32:46.728Z,14.59
2022-08-08T00:35:21.039Z,14.56
2022-08-08T00:38:02.152Z,14.56
2022-08-08T00:41:12.952Z,14.56
2022-08-08T00:43:21.470Z,14.40
2022-08-08T00:45:57.910Z,14.35
2022-08-08T00:48:59.273Z,14.50
2022-08-08T00:51:38.347Z,14.55
2022-08-08T00:54:16.196Z,14.53
2022-08-08T00:56:42.555Z,14.63
2022-08-08T00:59:44.069Z,14.44
2022-08-08T01:03:53.974Z,14.48
2022-08-08T01:05:58.644Z,14.47
2022-08-08T01:08:28.790Z,14.52
2022-08-08T01:11:15.247Z,14.34
2022-08-08T01:14:05.009Z,14.33
2022-08-08T01:16:53.692Z,14.04
2022-08-08T01:19:52.376Z,14.17
2022-08-08T01:22:35.380Z,14.11
2022-08-08T01:25:26.342Z,13.97
2022-08-08T01:28:06.157Z,14.25
2022-08-08T01:30:53.422Z,14.03
2022-08-08T01:34:00.498Z,13.84
2022-08-08T01:36:42.984Z,13.86
2022-08-08T01:39:41.795Z,14.12
2022-08-08T01:42:15.032Z,14.27
2022-08-08T01:44:53.541Z,14.14
2022-08-08T01:48:14.277Z,14.08
2022-08-08T01:50:30.134Z,14.05
2022-08-08T01:54:18.916Z,14.00
2022-08-08T01:56:28.109Z,13.79
2022-08-08T01:58:46.982Z,13.88
2022-08-08T02:01:21.219Z,13.92
2022-08-08T02:03:57.570Z,13.88
2022-08-08T02:06:43.394Z,13.83
2022-08-08T02:10:01.554Z,13.72
2022-08-08T02:12:12.615Z,13.79
2022-08-08T02:14:59.481Z,13.76
2022-08-08T02:17:36.813Z,13.56
2022-08-08T02:20:16.169Z,13.58
2022-08-08T02:23:09.506Z,13.62
2022-08-08T02:25:58.959Z,13.75
2022-08-08T02:28:48.593Z,13.58
2022-08-08T02:31:59.178Z,13.65
2022-08-08T02:34:33.006Z,13.77
2022-08-08T02:37:53.256Z,13.71
2022-08-08T02:40:05.729Z,13.54
2022-08-08T02:44:34.671Z,13.65
2022-08-08T02:45:51.508Z,13.63
2022-08-08T02:48:39.045Z,13.50
2022-08-08T02:51:30.525Z,13.58
2022-08-08T02:54:16.885Z,13.55
2022-08-08T02:56:47.702Z,13.56
2022-08-08T02:59:56.864Z,13.41
2022-08-08T03:02:31.276Z,13.42
2022-08-08T03:05:16.750Z,13.42
2022-08-08T03:07:58.598Z,13.46
2022-08-08T03:10:32.590Z,13.33
2022-08-08T03:13:34.129Z,13.44
2022-08-08T03:16:35.911Z,13.33
2022-08-08T03:19:06.568Z,13.28
2022-08-08T03:21:40.713Z,13.29
2022-08-08T03:24:20.043Z,13.42
2022-08-08T03:26:49.417Z,13.35
2022-08-08T03:29:20.603Z,13.26
2022-08-08T03:32:11.985Z,13.47
2022-08-08T03:34:40.529Z,13.35
2022-08-08T03:37:20.061Z,13.46
2022-08-08T03:40:00.450Z,13.52
2022-08-08T03:42:30.491Z,13.47
2022-08-08T03:44:57.318Z,13.26
2022-08-08T03:47:25.810Z,13.22
2022-08-08T03:50:06.725Z,13.36
2022-08-08T03:52:45.075Z,13.18
2022-08-08T03:55:19.979Z,13.29
2022-08-08T03:58:35.843Z,13.29
2022-08-08T04:01:01.687Z,13.15
2022-08-08T04:03:56.900Z,13.17
2022-08-08T04:06:20.201Z,13.44
2022-08-08T04:08:46.557Z,13.23
2022-08-08T04:11:17.402Z,13.25
2022-08-08T04:14:03.755Z,13.36
2022-08-08T04:16:38.922Z,13.31
2022-08-08T04:19:23.950Z,13.39
2022-08-08T04:21:51.677Z,13.61
2022-08-08T04:24:28.856Z,13.63
2022-08-08T04:26:58.676Z,13.83
2022-08-08T04:29:25.555Z,14.00
2022-08-08T04:31:59.474Z,14.08
2022-08-08T04:34:31.735Z,14.17
2022-08-08T04:36:58.855Z,14.36
2022-08-08T04:40:04.022Z,14.62
2022-08-08T04:42:15.928Z,14.75
2022-08-08T04:44:43.499Z,14.86
2022-08-08T04:47:14.306Z,15.01
2022-08-08T04:49:58.592Z,15.08
2022-08-08T04:52:33.776Z,15.45
2022-08-08T04:55:01.736Z,15.70
2022-08-08T04:57:28.267Z,15.81
2022-08-08T04:59:55.173Z,16.04
2022-08-08T05:02:30.828Z,16.15
2022-08-08T05:04:59.380Z,16.24
2022-08-08T05:07:26.423Z,16.39
2022-08-08T05:09:52.805Z,16.46
2022-08-08T05:12:21.354Z,16.75
2022-08-08T05:14:55.471Z,16.83
2022-08-08T05:17:23.151Z,16.91
2022-08-08T05:20:10.794Z,17.09
2022-08-08T05:22:36.117Z,17.18
2022-08-08T05:25:02.537Z,17.33
2022-08-08T05:27:33.091Z,17.47
2022-08-08T05:29:59.981Z,17.62
2022-08-08T05:32:27.231Z,17.71
2022-08-08T05:34:56.520Z,17.69
2022-08-08T05:37:39.057Z,17.77
2022-08-08T05:40:14.685Z,17.90
2022-08-08T05:42:41.966Z,18.11
2022-08-08T05:45:10.365Z,18.26
2022-08-08T05:48:00.516Z,18.30
2022-08-08T05:50:28.839Z,18.23
2022-08-08T05:52:55.373Z,18.30
2022-08-08T05:55:21.772Z,18.33
2022-08-08T05:58:04.977Z,18.30
2022-08-08T06:00:34.122Z,18.15
2022-08-08T06:03:10.527Z,18.50
2022-08-08T06:05:44.048Z,18.79
2022-08-08T06:08:33.115Z,18.91
2022-08-08T06:10:57.867Z,19.04
2022-08-08T06:13:24.260Z,19.30
2022-08-08T06:15:56.668Z,19.12
2022-08-08T06:18:25.886Z,19.48
2022-08-08T06:20:57.218Z,19.69
2022-08-08T06:23:32.676Z,19.76
2022-08-08T06:26:43.058Z,19.99
2022-08-08T06:29:02.366Z,20.31
2022-08-08T06:31:52.587Z,20.34
2022-08-08T06:34:26.013Z,20.48
2022-08-08T06:36:55.408Z,20.33
2022-08-08T06:39:23.275Z,20.24
2022-08-08T06:41:49.585Z,20.19
2022-08-08T06:44:22.826Z,20.04
2022-08-08T06:46:52.369Z,20.21
2022-08-08T06:49:18.988Z,20.21
2022-08-08T06:52:05.322Z,20.21
2022-08-08T06:54:31.695Z,20.55
2022-08-08T06:56:59.152Z,20.55
2022-08-08T06:59:25.509Z,20.86
2022-08-08T07:02:26.611Z,20.98
2022-08-08T07:04:52.804Z,20.80
2022-08-08T07:07:20.538Z,20.39
2022-08-08T07:09:59.325Z,20.90
2022-08-08T07:12:35.869Z,21.20
2022-08-08T07:15:04.341Z,21.24
2022-08-08T07:17:40.236Z,21.30
2022-08-08T07:20:21.243Z,21.58
2022-08-08T07:22:59.107Z,21.53
2022-08-08T07:25:31.895Z,21.85
2022-08-08T07:28:18.645Z,21.78
2022-08-08T07:30:46.162Z,22.03
2022-08-08T07:33:17.686Z,21.93
2022-08-08T07:35:46.218Z,21.62
2022-08-08T07:38:20.520Z,22.05
2022-08-08T07:40:48.309Z,22.02
2022-08-08T07:43:16.980Z,21.84
2022-08-08T07:46:17.935Z,21.84
2022-08-08T07:48:45.525Z,21.74
2022-08-08T07:51:24.001Z,21.99
2022-08-08T07:54:05.176Z,22.28
2022-08-08T07:56:35.532Z,22.64
2022-08-08T07:59:03.285Z,22.92
2022-08-08T08:02:37.188Z,23.09
2022-08-08T08:04:16.273Z,22.89
2022-08-08T08:06:43.435Z,23.32
2022-08-08T08:09:12.762Z,22.89
2022-08-08T08:11:51.765Z,23.40
2022-08-08T08:14:25.694Z,22.91
2022-08-08T08:16:52.051Z,22.70
2022-08-08T08:19:18.394Z,23.07
2022-08-08T08:21:57.187Z,23.31
2022-08-08T08:24:30.814Z,22.92
2022-08-08T08:26:58.715Z,23.19
2022-08-08T08:29:27.772Z,23.28
2022-08-08T08:31:57.903Z,23.49
2022-08-08T08:34:24.847Z,23.63
2022-08-08T08:36:59.036Z,23.42
2022-08-08T08:39:25.427Z,23.66
2022-08-08T08:42:11.716Z,23.36
2022-08-08T08:44:39.787Z,23.33
2022-08-08T08:47:08.774Z,22.80
2022-08-08T08:49:36.789Z,23.36
2022-08-08T08:52:09.991Z,23.56
2022-08-08T08:54:36.581Z,23.82
2022-08-08T08:57:09.308Z,23.90
2022-08-08T08:59:59.951Z,24.13
2022-08-08T09:02:29.752Z,24.62
2022-08-08T09:04:57.306Z,24.36
2022-08-08T09:07:23.976Z,23.90
2022-08-08T09:10:07.516Z,23.58
2022-08-08T09:12:40.031Z,23.79
2022-08-08T09:15:11.717Z,24.24
2022-08-08T09:17:41.742Z,24.15
2022-08-08T09:22:01.479Z,24.06
2022-08-08T09:23:05.278Z,23.87
2022-08-08T09:25:54.741Z,24.20
2022-08-08T09:28:35.576Z,23.54
2022-08-08T09:31:12.477Z,24.37
2022-08-08T09:34:15.303Z,24.24
2022-08-08T09:36:25.842Z,24.16
2022-08-08T09:38:55.437Z,23.89
2022-08-08T09:41:55.095Z,23.74
2022-08-08T09:44:36.371Z,23.96
2022-08-08T09:48:02.444Z,24.74
2022-08-08T09:49:52.138Z,25.10
2022-08-08T09:52:56.348Z,25.61
2022-08-08T09:55:09.012Z,24.55
2022-08-08T09:57:46.213Z,24.47
2022-08-08T10:00:47.891Z,24.60
2022-08-08T10:02:59.986Z,24.25
2022-08-08T10:05:28.010Z,24.90
2022-08-08T10:08:01.333Z,25.34
2022-08-08T10:10:49.798Z,25.17
2022-08-08T10:13:17.915Z,25.08
2022-08-08T10:16:00.598Z,25.01
2022-08-08T10:18:31.874Z,25.33
2022-08-08T10:21:22.778Z,24.80
2022-08-08T10:23:58.136Z,24.03
2022-08-08T10:26:30.517Z,24.43
2022-08-08T10:29:22.743Z,24.90
2022-08-08T10:32:08.503Z,25.37
2022-08-08T10:34:35.004Z,25.84
2022-08-08T10:37:01.356Z,25.89
2022-08-08T10:39:31.434Z,26.50
2022-08-08T10:42:13.140Z,25.34
2022-08-08T10:44:41.994Z,25.25
2022-08-08T10:47:09.071Z,25.66
2022-08-08T10:50:02.024Z,25.06
2022-08-08T10:52:31.131Z,25.59
2022-08-08T10:54:58.492Z,26.29
2022-08-08T10:57:27.618Z,27.29
2022-08-08T11:00:12.382Z,26.80
2022-08-08T11:02:38.758Z,26.76
2022-08-08T11:05:14.921Z,26.03
2022-08-08T11:08:31.794Z,24.87
2022-08-08T11:10:34.339Z,24.44
2022-08-08T11:13:28.693Z,24.31
2022-08-08T11:15:59.005Z,25.16
2022-08-08T11:18:27.954Z,25.68
2022-08-08T11:20:57.461Z,26.54
2022-08-08T11:23:25.030Z,25.99
2022-08-08T11:25:57.817Z,25.98
2022-08-08T11:28:29.303Z,26.71
2022-08-08T11:30:57.953Z,26.35
2022-08-08T11:33:53.500Z,25.68
2022-08-08T11:36:14.408Z,25.17
2022-08-08T11:38:55.655Z,24.73
2022-08-08T11:41:23.293Z,24.98
2022-08-08T11:43:50.811Z,25.53
2022-08-08T11:46:17.619Z,25.08
2022-08-08T11:48:47.373Z,25.78
2022-08-08T11:51:29.974Z,26.73
2022-08-08T11:54:01.991Z,27.74
2022-08-08T11:56:31.947Z,27.40
2022-08-08T11:59:08.030Z,27.13
2022-08-08T12:01:36.139Z,27.98
2022-08-08T12:04:03.793Z,28.23
2022-08-08T12:06:31.924Z,28.32
2022-08-08T12:09:05.183Z,27.57
2022-08-08T12:11:36.971Z,27.77
2022-08-08T12:14:04.691Z,26.34
2022-08-08T12:16:39.591Z,25.92
2022-08-08T12:19:13.489Z,25.61
2022-08-08T12:22:00.086Z,25.44
2022-08-08T12:24:27.607Z,25.07
2022-08-08T12:26:54.769Z,25.42
2022-08-08T12:29:41.375Z,25.54
2022-08-08T12:32:13.357Z,25.27
2022-08-08T12:34:44.747Z,26.11
2022-08-08T12:37:12.234Z,26.77
2022-08-08T12:40:01.851Z,27.17
2022-08-08T12:42:27.397Z,27.87
2022-08-08T12:45:19.882Z,28.36
2022-08-08T12:48:10.290Z,27.88
2022-08-08T12:50:46.892Z,26.74
2022-08-08T12:53:35.172Z,26.29
2022-08-08T12:56:18.955Z,25.60
2022-08-08T12:58:50.662Z,25.18
2022-08-08T13:01:34.654Z,25.11
2022-08-08T13:04:33.084Z,24.94
2022-08-08T13:07:11.889Z,24.66
2022-08-08T13:10:04.233Z,24.93
2022-08-08T13:12:33.732Z,24.67
2022-08-08T13:15:02.280Z,24.77
2022-08-08T13:18:07.577Z,25.09
2022-08-08T13:20:18.188Z,24.87
2022-08-08T13:22:44.867Z,24.75
2022-08-08T13:25:21.190Z,24.68
2022-08-08T13:27:52.509Z,24.68
2022-08-08T13:30:26.378Z,24.79
2022-08-08T13:32:54.836Z,24.46
2022-08-08T13:35:24.881Z,24.32
2022-08-08T13:38:06.921Z,24.40
2022-08-08T13:40:35.069Z,24.40
2022-08-08T13:43:01.992Z,25.11
2022-08-08T13:45:30.870Z,25.53
2022-08-08T13:47:58.293Z,25.87
2022-08-08T13:50:34.978Z,25.60
2022-08-08T13:53:23.087Z,25.32
2022-08-08T13:55:59.445Z,25.15
2022-08-08T13:58:28.927Z,24.79
2022-08-08T14:00:55.686Z,24.71
2022-08-08T14:03:52.961Z,25.33
2022-08-08T14:06:32.156Z,26.48
2022-08-08T14:09:00.178Z,27.40
2022-08-08T14:11:29.509Z,27.52
2022-08-08T14:14:00.452Z,27.83
2022-08-08T14:16:27.526Z,27.71
2022-08-08T14:18:54.761Z,27.52
2022-08-08T14:21:22.320Z,27.53
2022-08-08T14:24:07.184Z,27.65
2022-08-08T14:26:46.205Z,27.27
2022-08-08T14:29:26.912Z,26.53
2022-08-08T14:32:11.040Z,26.47
2022-08-08T14:34:42.397Z,26.81
2022-08-08T14:37:09.536Z,27.14
2022-08-08T14:40:05.789Z,26.83
2022-08-08T14:42:55.162Z,26.54
2022-08-08T14:45:29.043Z,26.26
2022-08-08T14:48:10.589Z,26.81
2022-08-08T14:50:39.052Z,26.54
2022-08-08T14:53:15.230Z,26.68
2022-08-08T14:55:43.014Z,26.91
2022-08-08T14:58:11.719Z,26.41
2022-08-08T15:00:44.273Z,26.41
2022-08-08T15:03:14.551Z,26.79
2022-08-08T15:05:53.184Z,26.08
2022-08-08T15:08:33.904Z,25.67
2022-08-08T15:11:02.192Z,25.42
2022-08-08T15:13:39.629Z,25.07
2022-08-08T15:16:12.214Z,24.96
2022-08-08T15:18:40.847Z,25.32
2022-08-08T15:21:16.624Z,25.47
2022-08-08T15:23:43.267Z,25.25
2022-08-08T15:26:13.039Z,25.18
2022-08-08T15:28:39.603Z,24.77
2022-08-08T15:31:06.050Z,24.68
2022-08-08T15:33:38.595Z,24.73
2022-08-08T15:36:21.130Z,24.74
2022-08-08T15:38:55.232Z,24.58
2022-08-08T15:41:24.556Z,24.67
2022-08-08T15:44:00.702Z,24.67
2022-08-08T15:46:35.445Z,24.68
2022-08-08T15:49:02.027Z,24.77
2022-08-08T15:51:33.671Z,24.70
2022-08-08T15:54:00.687Z,24.43
2022-08-08T15:56:27.048Z,24.37
2022-08-08T15:58:53.404Z,24.39
2022-08-08T16:01:20.935Z,24.36
2022-08-08T16:03:52.008Z,24.28
2022-08-08T16:06:28.505Z,24.20
2022-08-08T16:09:02.458Z,24.28
2022-08-08T16:13:10.887Z,24.16
2022-08-08T16:14:32.591Z,24.12
2022-08-08T16:17:00.132Z,24.02
2022-08-08T16:19:26.908Z,23.95
2022-08-08T16:21:53.997Z,23.93
2022-08-08T16:24:22.897Z,23.81
2022-08-08T16:26:49.302Z,23.68
2022-08-08T16:29:37.111Z,23.69
2022-08-08T16:32:04.237Z,23.72
2022-08-08T16:34:37.681Z,23.70
2022-08-08T16:37:05.282Z,23.60
2022-08-08T16:40:01.429Z,23.40
2022-08-08T16:42:18.893Z,23.36
2022-08-08T16:44:54.664Z,23.25
2022-08-08T16:47:40.728Z,23.23
2022-08-08T16:50:13.189Z,23.17
2022-08-08T16:55:18.133Z,23.17
2022-08-08T16:55:53.405Z,23.11
2022-08-08T16:58:17.871Z,23.12
2022-08-08T17:00:49.242Z,22.93
2022-08-08T17:03:25.534Z,22.91
2022-08-08T17:06:04.778Z,22.84
2022-08-08T17:08:31.131Z,22.84
2022-08-08T17:10:59.499Z,22.55
2022-08-08T17:13:41.099Z,22.14
2022-08-08T17:16:16.791Z,22.10
2022-08-08T17:18:45.517Z,22.14
2022-08-08T17:21:12.163Z,22.25
2022-08-08T17:23:58.338Z,22.07
2022-08-08T17:26:29.241Z,21.94
2022-08-08T17:28:55.850Z,21.78
2022-08-08T17:31:44.225Z,21.95
2022-08-08T17:34:53.906Z,21.91
2022-08-08T17:37:02.853Z,21.88
2022-08-08T17:40:05.105Z,21.93
2022-08-08T17:42:16.592Z,21.81
2022-08-08T17:44:44.955Z,21.81
2022-08-08T17:47:23.391Z,21.71
2022-08-08T17:49:51.603Z,21.64
2022-08-08T17:52:19.027Z,21.56
2022-08-08T17:54:46.358Z,21.55
2022-08-08T17:57:14.256Z,21.53
2022-08-08T17:59:45.301Z,21.46
2022-08-08T18:02:16.453Z,21.42
2022-08-08T18:04:50.511Z,21.46
2022-08-08T18:08:02.690Z,21.30
2022-08-08T18:10:03.813Z,21.37
2022-08-08T18:12:30.511Z,21.34
2022-08-08T18:14:57.554Z,21.22
2022-08-08T18:18:04.809Z,21.14
2022-08-08T18:20:43.192Z,21.04
2022-08-08T18:22:59.522Z,20.76
2022-08-08T18:25:25.902Z,20.74
2022-08-08T18:27:54.953Z,20.67
2022-08-08T18:30:21.318Z,20.55
2022-08-08T18:32:48.545Z,20.54
2022-08-08T18:35:17.506Z,20.47
2022-08-08T18:37:48.010Z,20.36
2022-08-08T18:40:15.122Z,20.24
2022-08-08T18:42:45.732Z,20.14
2022-08-08T18:46:00.271Z,19.85
2022-08-08T18:48:03.095Z,19.80
2022-08-08T18:50:34.799Z,19.73
2022-08-08T18:53:06.147Z,19.47
2022-08-08T18:55:33.690Z,19.32
2022-08-08T18:58:00.096Z,19.46
2022-08-08T19:00:26.447Z,19.23
2022-08-08T19:02:56.165Z,19.26
2022-08-08T19:05:32.103Z,19.20
2022-08-08T19:08:02.958Z,19.09
2022-08-08T19:10:30.575Z,19.06
2022-08-08T19:12:57.801Z,18.94
2022-08-08T19:15:33.703Z,18.90
2022-08-08T19:18:32.689Z,18.84
2022-08-08T19:20:47.114Z,18.78
2022-08-08T19:23:13.499Z,18.81
2022-08-08T19:26:20.444Z,18.81
2022-08-08T19:28:26.781Z,18.61
2022-08-08T19:31:03.799Z,18.55
2022-08-08T19:33:52.010Z,18.72
2022-08-08T19:36:27.367Z,18.59
2022-08-08T19:38:54.570Z,18.36
2022-08-08T19:41:21.506Z,18.33
2022-08-08T19:44:03.497Z,18.27
2022-08-08T19:46:33.186Z,18.33
2022-08-08T19:49:00.650Z,18.32
2022-08-08T19:51:34.278Z,18.31
2022-08-08T19:54:01.458Z,18.16
2022-08-08T19:56:39.959Z,18.07
2022-08-08T19:59:08.176Z,17.92
2022-08-08T20:02:01.693Z,18.07
2022-08-08T20:04:21.001Z,18.11
2022-08-08T20:06:50.874Z,18.17
2022-08-08T20:09:23.009Z,18.15
2022-08-08T20:11:50.087Z,18.12
2022-08-08T20:14:36.196Z,18.01
2022-08-08T20:17:04.141Z,18.09
2022-08-08T20:19:34.266Z,18.14
2022-08-08T20:22:04.754Z,18.06
2022-08-08T20:24:31.622Z,17.97
2022-08-08T20:26:57.963Z,17.89
2022-08-08T20:29:25.894Z,17.92
2022-08-08T20:32:14.179Z,18.00
2022-08-08T20:34:47.863Z,17.79
2022-08-08T20:37:20.022Z,17.54
2022-08-08T20:39:51.868Z,17.54
2022-08-08T20:42:19.304Z,17.47
2022-08-08T20:44:46.839Z,17.44
2022-08-08T20:47:22.681Z,17.33
2022-08-08T20:49:50.595Z,17.38
2022-08-08T20:52:21.099Z,17.27
2022-08-08T20:54:47.547Z,17.21
2022-08-08T20:57:17.434Z,17.15
2022-08-08T20:59:45.733Z,16.96
2022-08-08T21:02:19.580Z,17.00
2022-08-08T21:04:51.951Z,16.89
2022-08-08T21:07:30.925Z,16.80
2022-08-08T21:10:12.329Z,16.96
2022-08-08T21:12:39.598Z,16.88
2022-08-08T21:15:11.299Z,16.89
2022-08-08T21:17:43.162Z,16.93
2022-08-08T21:20:11.561Z,16.92
2022-08-08T21:22:38.593Z,16.93
2022-08-08T21:25:05.856Z,16.84
2022-08-08T21:28:09.145Z,16.82
2022-08-08T21:30:26.410Z,16.85
2022-08-08T21:32:53.513Z,16.93
2022-08-08T21:36:13.761Z,16.74
2022-08-08T21:38:16.455Z,16.85
2022-08-08T21:40:54.796Z,16.78
2022-08-08T21:43:23.286Z,16.82
2022-08-08T21:48:03.731Z,16.96
2022-08-08T21:48:41.802Z,16.80
2022-08-08T21:51:11.127Z,16.75
2022-08-08T21:54:27.209Z,16.77
2022-08-08T21:56:34.155Z,16.59
2022-08-08T21:59:09.852Z,16.58
2022-08-08T22:01:41.217Z,16.64
2022-08-08T22:04:10.529Z,16.62
2022-08-08T22:06:38.129Z,16.66
2022-08-08T22:09:08.356Z,16.60
2022-08-08T22:11:51.100Z,16.74
2022-08-08T22:14:21.655Z,16.50
2022-08-08T22:16:47.998Z,16.44
2022-08-08T22:19:19.879Z,16.43
2022-08-08T22:21:50.616Z,16.46
2022-08-08T22:24:17.275Z,16.31
2022-08-08T22:27:02.356Z,16.20
2022-08-08T22:30:00.954Z,16.22
2022-08-08T22:32:16.077Z,16.18
2022-08-08T22:34:45.144Z,16.07
2022-08-08T22:37:49.041Z,16.14
2022-08-08T22:40:04.501Z,15.95
2022-08-08T22:42:31.945Z,15.96
2022-08-08T22:45:01.104Z,15.96
2022-08-08T22:47:37.576Z,15.98
2022-08-08T22:50:21.677Z,15.92
2022-08-08T22:53:22.543Z,15.86
2022-08-08T22:55:59.191Z,15.83
2022-08-08T22:58:27.077Z,15.85
2022-08-08T23:00:55.280Z,15.81
2022-08-08T23:03:21.709Z,15.91
2022-08-08T23:05:49.594Z,15.75
2022-08-08T23:08:18.046Z,15.68
2022-08-08T23:10:46.454Z,15.75
2022-08-08T23:13:19.516Z,15.89
2022-08-08T23:16:37.815Z,15.70
2022-08-08T23:18:34.765Z,15.68
2022-08-08T23:21:04.486Z,15.65
2022-08-08T23:23:32.545Z,15.65
2022-08-08T23:26:15.304Z,15.72
2022-08-08T23:28:41.681Z,15.59
2022-08-08T23:31:08.052Z,15.56
2022-08-08T23:34:18.879Z,15.59
2022-08-08T23:36:24.293Z,15.47
2022-08-08T23:38:52.927Z,15.38
2022-08-08T23:41:24.847Z,15.33
2022-08-08T23:43:54.073Z,15.34
2022-08-08T23:49:03.892Z,15.32
2022-08-08T23:49:15.541Z,15.24
2022-08-08T23:52:05.239Z,15.18
2022-08-08T23:54:41.430Z,15.27
2022-08-08T23:57:25.474Z,15.21
